Time;durP1;ratioP1;P1;durP2;ratioP2;P2;SDS_P1;SDS_P2;PMS_P1;PMS_P2;Temp;Humidity;BMP_temperature;BMP_pressure;BME280_temperature;BME280_humidity;BME280_pressure;Samples;Min_cycle;Max_cycle;Signal;HPM_P1;HPM_P2
2023/11/01 00:00:43;;;;;;;11.83;11.13;;;11.30;99.90;;;;;;4851660;29;20188;-49
2023/11/01 00:03:09;;;;;;;11.70;11.10;;;11.30;99.90;;;;;;4852309;29;20211;-50
2023/11/01 00:05:35;;;;;;;12.50;11.60;;;11.30;99.90;;;;;;4855814;29;20437;-51
2023/11/01 00:08:00;;;;;;;12.10;11.47;;;11.30;99.90;;;;;;4863647;29;20208;-49
2023/11/01 00:10:26;;;;;;;11.80;11.20;;;11.30;1.00;;;;;;4868862;29;20208;-51
2023/11/01 00:12:51;;;;;;;12.57;11.50;;;11.40;99.90;;;;;;4865886;29;20221;-50
2023/11/01 00:15:17;;;;;;;11.70;11.10;;;11.50;99.10;;;;;;4866225;29;20255;-49
2023/11/01 00:17:43;;;;;;;12.23;11.53;;;11.50;1.00;;;;;;4867081;29;20190;-47
2023/11/01 00:20:09;;;;;;;11.37;10.87;;;11.50;1.00;;;;;;4861452;29;20216;-52
2023/11/01 00:22:35;;;;;;;11.90;11.40;;;11.50;1.00;;;;;;4868688;29;20195;-49
2023/11/01 00:25:01;;;;;;;11.97;11.37;;;11.50;99.90;;;;;;4868770;29;20515;-51
2023/11/01 00:27:30;;;;;;;12.17;11.53;;;11.50;99.90;;;;;;4868069;29;20270;-52
2023/11/01 00:29:57;;;;;;;11.77;11.27;;;11.50;99.90;;;;;;4864531;29;20203;-46
2023/11/01 00:32:22;;;;;;;11.70;11.00;;;11.50;99.90;;;;;;4868324;29;20429;-50
2023/11/01 00:34:48;;;;;;;11.97;11.37;;;11.40;99.90;;;;;;4855458;29;20433;-49
2023/11/01 00:37:14;;;;;;;11.50;11.00;;;11.40;1.00;;;;;;4851169;29;20541;-51
2023/11/01 00:39:40;;;;;;;12.00;11.30;;;11.30;1.00;;;;;;4851077;29;20499;-49
2023/11/01 00:42:06;;;;;;;11.67;10.97;;;11.40;1.00;;;;;;4851476;29;20436;-49
2023/11/01 00:44:32;;;;;;;11.83;11.23;;;11.40;1.00;;;;;;4850532;29;20453;-52
2023/11/01 00:46:57;;;;;;;11.77;11.27;;;11.40;1.00;;;;;;4850746;29;20180;-49
2023/11/01 00:49:23;;;;;;;12.27;11.67;;;11.50;1.00;;;;;;4868404;29;20559;-49
2023/11/01 00:51:48;;;;;;;11.80;11.30;;;11.50;1.00;;;;;;4867333;29;20195;-52
2023/11/01 00:54:14;;;;;;;11.57;10.97;;;11.60;1.00;;;;;;4868018;29;20196;-46
2023/11/01 00:56:40;;;;;;;11.87;11.27;;;11.60;99.90;;;;;;4867222;29;20198;-50
2023/11/01 00:59:06;;;;;;;11.40;10.80;;;11.60;99.90;;;;;;4862574;29;20184;-50
2023/11/01 01:01:31;;;;;;;11.77;11.17;;;11.60;99.90;;;;;;4864329;29;20199;-54
2023/11/01 01:03:58;;;;;;;12.13;11.50;;;11.70;99.90;;;;;;4851547;29;20676;-52
2023/11/01 01:06:25;;;;;;;11.83;11.23;;;11.70;99.90;;;;;;4850001;29;20184;-53
2023/11/01 01:08:51;;;;;;;11.90;11.30;;;11.70;99.90;;;;;;4850388;29;20992;-49
2023/11/01 01:11:17;;;;;;;11.60;11.10;;;11.80;1.00;;;;;;4850428;29;20571;-47
2023/11/01 01:13:43;;;;;;;12.40;11.80;;;11.80;1.00;;;;;;4852405;29;21335;-52
2023/11/01 01:16:09;;;;;;;11.70;11.20;;;11.90;1.00;;;;;;4850218;29;20445;-50
2023/11/01 01:18:35;;;;;;;11.90;11.40;;;11.90;1.00;;;;;;4851776;29;20429;-45
2023/11/01 01:21:01;;;;;;;12.00;11.40;;;11.90;1.00;;;;;;4867734;29;20686;-50
2023/11/01 01:23:26;;;;;;;11.90;11.30;;;12.00;1.00;;;;;;4858130;29;20181;-50
2023/11/01 01:25:52;;;;;;;12.10;11.50;;;12.00;1.00;;;;;;4850096;29;20499;-49
2023/11/01 01:28:18;;;;;;;12.07;11.47;;;12.00;1.00;;;;;;4855677;29;20209;-49
2023/11/01 01:30:44;;;;;;;12.47;11.77;;;12.00;1.00;;;;;;4838791;29;20212;-48
2023/11/01 01:33:09;;;;;;;11.87;11.27;;;12.00;1.00;;;;;;4833648;29;20453;-48
2023/11/01 01:35:35;;;;;;;12.00;11.20;;;12.00;1.00;;;;;;4853496;29;20192;-49
2023/11/01 01:38:00;;;;;;;11.93;11.33;;;12.10;4.20;;;;;;4850438;29;20245;-45
2023/11/01 01:40:26;;;;;;;11.80;11.20;;;12.00;99.90;;;;;;4849561;29;20631;-51
2023/11/01 01:42:52;;;;;;;12.23;11.53;;;12.00;78.20;;;;;;4857888;29;20188;-49
2023/11/01 01:45:18;;;;;;;12.07;11.47;;;11.90;1.00;;;;;;4849965;29;20921;-49
2023/11/01 01:47:44;;;;;;;11.73;11.20;;;12.00;23.60;;;;;;4861123;29;20184;-51
2023/11/01 01:50:10;;;;;;;12.20;11.60;;;11.90;1.00;;;;;;4849585;29;20555;-50
2023/11/01 01:52:36;;;;;;;11.50;10.90;;;11.90;1.00;;;;;;4833073;29;20444;-51
2023/11/01 01:55:06;;;;;;;12.27;11.60;;;11.90;5.50;;;;;;4852975;29;20455;-52
2023/11/01 01:57:32;;;;;;;12.00;11.40;;;11.90;99.90;;;;;;4864697;29;20188;-50
2023/11/01 02:00:00;;;;;;;11.90;11.30;;;11.90;99.90;;;;;;4850218;29;20456;-49
2023/11/01 02:02:26;;;;;;;11.70;11.17;;;12.00;99.90;;;;;;4850337;29;20436;-45
2023/11/01 02:04:51;;;;;;;11.30;10.80;;;11.90;99.90;;;;;;4853267;29;20600;-51
2023/11/01 02:07:17;;;;;;;12.10;11.50;;;11.90;1.00;;;;;;4854365;29;20420;-49
2023/11/01 02:09:43;;;;;;;12.43;11.83;;;11.80;1.00;;;;;;4867288;29;20356;-49
2023/11/01 02:12:08;;;;;;;11.30;10.80;;;11.70;6.50;;;;;;4853767;29;20239;-50
2023/11/01 02:14:34;;;;;;;12.50;11.80;;;11.70;99.90;;;;;;4860651;29;20184;-47
2023/11/01 02:17:00;;;;;;;11.93;11.23;;;11.70;99.90;;;;;;4863349;29;20206;-50
2023/11/01 02:19:25;;;;;;;11.90;11.30;;;11.60;99.90;;;;;;4861897;29;20242;-49
2023/11/01 02:21:51;;;;;;;12.03;11.33;;;11.60;99.90;;;;;;4865831;29;20196;-52
2023/11/01 02:24:17;;;;;;;12.03;11.43;;;11.60;99.90;;;;;;4865539;29;20218;-50
2023/11/01 02:26:43;;;;;;;11.70;11.03;;;11.60;1.00;;;;;;4854718;29;20440;-50
2023/11/01 02:29:09;;;;;;;12.20;11.53;;;11.60;1.00;;;;;;4859238;29;20910;-44
2023/11/01 02:31:35;;;;;;;11.90;11.30;;;11.60;1.00;;;;;;4866149;29;20299;-51
2023/11/01 02:34:00;;;;;;;11.63;11.13;;;11.60;1.00;;;;;;4862228;29;20433;-49
2023/11/01 02:36:26;;;;;;;11.97;11.37;;;11.60;1.00;;;;;;4850919;29;20196;-51
2023/11/01 02:38:52;;;;;;;12.90;11.90;;;11.60;1.00;;;;;;4851600;29;20287;-49
2023/11/01 02:41:18;;;;;;;11.90;11.30;;;11.60;1.00;;;;;;4866702;29;20220;-53
2023/11/01 02:43:43;;;;;;;12.33;11.73;;;11.60;1.00;;;;;;4862005;29;20444;-51
2023/11/01 02:46:09;;;;;;;11.73;11.03;;;11.60;1.00;;;;;;4854261;29;20192;-51
2023/11/01 02:48:34;;;;;;;11.50;10.80;;;11.60;1.00;;;;;;4861126;29;20248;-51
2023/11/01 02:51:00;;;;;;;11.40;10.80;;;11.70;1.00;;;;;;4861147;29;20268;-49
2023/11/01 02:53:26;;;;;;;12.03;11.43;;;11.70;1.00;;;;;;4858224;29;20211;-50
2023/11/01 02:55:51;;;;;;;11.77;11.17;;;11.70;1.00;;;;;;4856548;29;20688;-49
2023/11/01 02:58:17;;;;;;;11.90;11.33;;;11.70;1.00;;;;;;4860323;29;20184;-49
2023/11/01 03:00:43;;;;;;;11.27;10.77;;;11.60;1.00;;;;;;4855306;29;20213;-52
2023/11/01 03:03:08;;;;;;;12.00;11.40;;;11.70;1.00;;;;;;4856600;29;20228;-45
2023/11/01 03:05:34;;;;;;;11.73;11.17;;;11.70;1.00;;;;;;4868805;29;20435;-48
2023/11/01 03:08:00;;;;;;;12.10;11.60;;;11.70;1.00;;;;;;4864827;29;20242;-52
2023/11/01 03:10:25;;;;;;;11.80;11.20;;;11.60;1.00;;;;;;4860024;29;20334;-47
2023/11/01 03:12:51;;;;;;;11.83;11.30;;;11.60;1.00;;;;;;4864279;29;20192;-52
2023/11/01 03:15:17;;;;;;;11.93;11.20;;;11.60;1.00;;;;;;4860116;29;20717;-52
2023/11/01 03:17:42;;;;;;;11.90;11.20;;;11.60;1.00;;;;;;4864270;29;20644;-50
2023/11/01 03:20:08;;;;;;;12.00;11.40;;;11.70;1.00;;;;;;4853036;29;20720;-49
2023/11/01 03:22:34;;;;;;;11.53;10.93;;;11.70;1.00;;;;;;4853493;29;20287;-51
2023/11/01 03:25:01;;;;;;;12.23;11.43;;;11.70;1.00;;;;;;4852621;29;20434;-50
2023/11/01 03:27:26;;;;;;;11.47;10.97;;;11.70;1.00;;;;;;4870245;29;20434;-45
2023/11/01 03:29:54;;;;;;;11.27;10.67;;;11.70;1.00;;;;;;4856817;29;20834;-49
2023/11/01 03:32:22;;;;;;;11.20;10.60;;;11.70;1.00;;;;;;4852283;29;20223;-50
2023/11/01 03:34:48;;;;;;;11.30;10.73;;;11.60;1.00;;;;;;4853515;29;20901;-50
2023/11/01 03:37:14;;;;;;;10.43;9.93;;;11.60;1.00;;;;;;4851945;29;20521;-52
2023/11/01 03:39:39;;;;;;;11.50;10.90;;;11.60;1.00;;;;;;4852819;29;20433;-51
2023/11/01 03:42:05;;;;;;;11.83;11.23;;;11.60;1.00;;;;;;4852336;29;20189;-52
2023/11/01 03:44:34;;;;;;;11.40;10.80;;;11.60;1.00;;;;;;4859923;29;20192;-52
2023/11/01 03:47:01;;;;;;;11.30;10.70;;;11.60;1.00;;;;;;4851897;29;20196;-52
2023/11/01 03:49:29;;;;;;;11.60;10.90;;;11.60;1.00;;;;;;4852135;29;20618;-49
2023/11/01 03:51:56;;;;;;;11.23;10.60;;;11.60;1.00;;;;;;4852029;29;20476;-51
2023/11/01 03:54:22;;;;;;;11.70;10.67;;;11.60;1.00;;;;;;4851497;29;20604;-48
2023/11/01 03:56:48;;;;;;;10.70;10.20;;;11.60;1.00;;;;;;4851578;29;20513;-50
2023/11/01 03:59:14;;;;;;;11.30;10.80;;;11.60;1.00;;;;;;4859752;29;20196;-49
2023/11/01 04:01:40;;;;;;;11.00;10.50;;;11.60;1.00;;;;;;4852368;29;20192;-50
2023/11/01 04:04:05;;;;;;;11.60;11.10;;;11.60;1.00;;;;;;4858513;29;20512;-50
2023/11/01 04:06:31;;;;;;;10.57;10.07;;;11.60;1.00;;;;;;4865798;29;20263;-53
2023/11/01 04:08:56;;;;;;;11.20;10.70;;;11.60;1.00;;;;;;4867294;29;20207;-53
2023/11/01 04:11:22;;;;;;;10.97;10.47;;;11.60;1.00;;;;;;4861959;29;20259;-48
2023/11/01 04:13:49;;;;;;;11.80;11.20;;;11.60;1.00;;;;;;4855191;29;20633;-52
2023/11/01 04:16:15;;;;;;;11.17;10.67;;;11.60;1.00;;;;;;4859624;29;20177;-54
2023/11/01 04:18:42;;;;;;;10.60;10.13;;;11.60;1.00;;;;;;4850472;29;20608;-53
2023/11/01 04:21:08;;;;;;;11.23;10.63;;;11.60;1.00;;;;;;4852040;29;20193;-49
2023/11/01 04:23:34;;;;;;;11.00;10.50;;;11.60;1.00;;;;;;4863694;29;20412;-45
2023/11/01 04:26:00;;;;;;;10.67;10.23;;;11.60;1.00;;;;;;4856834;29;20183;-53
2023/11/01 04:28:26;;;;;;;10.33;9.83;;;11.50;1.00;;;;;;4851154;29;20429;-52
2023/11/01 04:30:51;;;;;;;9.90;9.43;;;11.50;1.00;;;;;;4851966;29;20200;-47
2023/11/01 04:33:17;;;;;;;10.50;10.00;;;11.50;1.00;;;;;;4850198;29;20453;-48
2023/11/01 04:35:43;;;;;;;9.63;9.23;;;11.50;1.00;;;;;;4852838;29;20191;-49
2023/11/01 04:38:08;;;;;;;11.33;10.73;;;11.40;1.00;;;;;;4847452;29;20211;-49
2023/11/01 04:40:37;;;;;;;10.53;9.83;;;11.40;1.00;;;;;;4850659;29;20229;-43
2023/11/01 04:43:03;;;;;;;10.77;10.23;;;11.40;1.00;;;;;;4864430;29;21010;-50
2023/11/01 04:45:31;;;;;;;10.50;10.00;;;11.40;1.00;;;;;;4867539;29;20470;-50
2023/11/01 04:47:57;;;;;;;10.90;10.40;;;11.40;1.00;;;;;;4834206;29;20444;-53
2023/11/01 04:50:22;;;;;;;10.80;10.30;;;11.40;1.00;;;;;;4850931;29;20465;-52
2023/11/01 04:52:48;;;;;;;10.53;10.03;;;11.40;1.00;;;;;;4850730;29;20445;-49
2023/11/01 04:55:14;;;;;;;9.90;9.40;;;11.40;1.00;;;;;;4853722;29;20211;-51
2023/11/01 04:57:41;;;;;;;10.10;9.60;;;11.40;1.00;;;;;;4852062;29;20199;-49
2023/11/01 05:00:16;;;;;;;10.23;9.83;;;11.50;1.00;;;;;;4856656;29;20272;-44
2023/11/01 05:02:45;;;;;;;11.10;10.60;;;11.50;1.00;;;;;;4857755;29;20547;-53
2023/11/01 05:05:12;;;;;;;10.57;10.13;;;11.40;1.00;;;;;;4851342;29;20452;-49
2023/11/01 05:07:38;;;;;;;10.80;10.30;;;11.50;1.00;;;;;;4845766;29;20486;-53
2023/11/01 05:10:05;;;;;;;10.33;9.83;;;11.50;1.00;;;;;;4860960;29;20821;-51
2023/11/01 05:12:30;;;;;;;10.37;9.97;;;11.50;1.00;;;;;;4856344;29;20476;-53
2023/11/01 05:14:56;;;;;;;9.80;9.40;;;11.50;1.00;;;;;;4867956;29;20504;-48
2023/11/01 05:17:22;;;;;;;10.47;9.87;;;11.60;99.90;;;;;;4857662;29;20593;-54
2023/11/01 05:19:47;;;;;;;9.80;9.20;;;11.70;99.90;;;;;;4854474;29;20200;-52
2023/11/01 05:22:13;;;;;;;9.90;9.50;;;11.70;96.30;;;;;;4859797;29;20195;-51
2023/11/01 05:24:38;;;;;;;10.27;9.87;;;11.70;92.50;;;;;;4861543;29;20207;-48
2023/11/01 05:27:07;;;;;;;10.90;10.40;;;11.80;99.90;;;;;;4857298;29;20217;-51
2023/11/01 05:29:33;;;;;;;10.07;9.57;;;11.80;1.00;;;;;;4834475;29;20209;-53
2023/11/01 05:31:59;;;;;;;9.97;9.47;;;11.80;1.00;;;;;;4858477;29;20441;-53
2023/11/01 05:34:24;;;;;;;10.23;9.83;;;11.90;1.00;;;;;;4850743;29;20409;-51
2023/11/01 05:36:50;;;;;;;10.80;10.07;;;12.00;99.90;;;;;;4854863;29;20185;-50
2023/11/01 05:39:17;;;;;;;15.83;10.60;;;11.90;1.00;;;;;;4855197;29;20244;-51
2023/11/01 05:41:46;;;;;;;9.83;9.13;;;11.90;1.00;;;;;;4854786;29;20448;-50
2023/11/01 05:44:12;;;;;;;10.00;9.47;;;11.90;99.90;;;;;;4855210;29;20540;-48
2023/11/01 05:46:38;;;;;;;10.47;9.87;;;11.90;99.90;;;;;;4862986;29;20920;-46
2023/11/01 05:49:04;;;;;;;10.70;9.97;;;11.90;1.00;;;;;;4855764;29;20824;-51
2023/11/01 05:51:30;;;;;;;9.70;9.23;;;11.90;1.00;;;;;;4867564;29;20188;-49
2023/11/01 05:53:55;;;;;;;10.50;10.00;;;11.80;1.00;;;;;;4855843;29;20420;-51
2023/11/01 05:56:23;;;;;;;10.70;10.20;;;11.90;1.00;;;;;;4866825;29;20325;-51
2023/11/01 05:58:49;;;;;;;9.53;9.03;;;11.90;99.90;;;;;;4857871;29;20182;-46
2023/11/01 06:01:14;;;;;;;10.60;10.10;;;11.90;20.00;;;;;;4856635;29;20445;-49
2023/11/01 06:03:40;;;;;;;10.90;10.03;;;12.00;1.00;;;;;;4852409;29;20578;-48
2023/11/01 06:06:06;;;;;;;10.10;9.60;;;12.10;1.00;;;;;;4861140;29;20196;-46
2023/11/01 06:08:31;;;;;;;10.00;9.43;;;12.10;99.90;;;;;;4854623;29;20704;-48
2023/11/01 06:10:57;;;;;;;10.37;9.77;;;12.10;99.90;;;;;;4866233;29;20592;-51
2023/11/01 06:13:25;;;;;;;11.57;10.80;;;12.10;1.00;;;;;;4853702;29;20236;-48
2023/11/01 06:15:51;;;;;;;10.97;10.47;;;12.10;99.90;;;;;;4849211;29;20189;-48
2023/11/01 06:18:17;;;;;;;10.50;10.00;;;12.10;1.00;;;;;;4849753;29;20429;-50
2023/11/01 06:20:43;;;;;;;10.60;10.00;;;12.10;99.90;;;;;;4851596;29;20189;-48
2023/11/01 06:23:09;;;;;;;10.60;10.10;;;12.10;40.70;;;;;;4849505;29;21369;-49
2023/11/01 06:25:36;;;;;;;10.60;10.10;;;12.10;1.00;;;;;;4849571;29;20453;-46
2023/11/01 06:28:02;;;;;;;10.20;9.60;;;12.10;1.00;;;;;;4853092;29;20176;-45
2023/11/01 06:30:29;;;;;;;10.70;10.10;;;12.10;1.00;;;;;;4866769;29;20500;-51
2023/11/01 06:32:54;;;;;;;10.83;10.23;;;12.10;1.00;;;;;;4861546;29;20200;-49
2023/11/01 06:35:20;;;;;;;10.63;10.13;;;12.20;1.00;;;;;;4850950;29;20792;-51
2023/11/01 06:37:47;;;;;;;10.13;9.53;;;12.20;1.00;;;;;;4851747;29;20219;-48
2023/11/01 06:40:13;;;;;;;10.37;9.77;;;12.20;99.90;;;;;;4849311;29;20743;-50
2023/11/01 06:42:38;;;;;;;11.17;10.57;;;12.20;99.90;;;;;;4850240;29;20561;-44
2023/11/01 06:45:05;;;;;;;11.70;10.93;;;12.20;99.90;;;;;;4853513;29;20271;-52
2023/11/01 06:47:31;;;;;;;11.70;10.60;;;12.20;99.90;;;;;;4849543;29;20869;-51
2023/11/01 06:49:57;;;;;;;11.07;10.50;;;12.10;1.00;;;;;;4833348;29;20880;-52
2023/11/01 06:52:22;;;;;;;10.93;10.43;;;12.10;66.90;;;;;;4850714;29;20191;-45
2023/11/01 06:54:48;;;;;;;11.00;10.40;;;12.10;1.00;;;;;;4849589;29;21097;-48
2023/11/01 06:57:13;;;;;;;10.67;10.20;;;12.00;99.90;;;;;;4850460;29;20339;-48
2023/11/01 06:59:39;;;;;;;11.30;10.80;;;12.00;1.00;;;;;;4850815;29;21029;-49
2023/11/01 07:02:06;;;;;;;11.40;10.60;;;12.00;1.00;;;;;;4849048;29;20196;-48
2023/11/01 07:04:32;;;;;;;11.30;10.80;;;11.90;1.00;;;;;;4850884;29;20271;-47
2023/11/01 07:06:57;;;;;;;11.87;11.27;;;11.90;1.00;;;;;;4852334;29;20435;-50
2023/11/01 07:09:23;;;;;;;10.10;9.50;;;11.90;1.00;;;;;;4849556;29;20212;-49
2023/11/01 07:11:49;;;;;;;11.53;10.87;;;11.80;1.00;;;;;;4849939;29;20726;-47
2023/11/01 07:14:14;;;;;;;10.73;10.03;;;11.80;8.50;;;;;;4850860;29;20185;-50
2023/11/01 07:16:42;;;;;;;10.60;10.00;;;11.70;99.90;;;;;;4850107;29;20196;-52
2023/11/01 07:19:07;;;;;;;12.27;11.57;;;11.70;1.00;;;;;;4848975;29;20547;-49
2023/11/01 07:21:33;;;;;;;10.83;10.33;;;11.70;1.00;;;;;;4851595;29;20448;-52
2023/11/01 07:23:59;;;;;;;10.90;10.30;;;11.70;1.00;;;;;;4851292;29;20660;-50
2023/11/01 07:26:25;;;;;;;11.33;10.70;;;11.70;99.90;;;;;;4849734;29;20185;-52
2023/11/01 07:28:51;;;;;;;10.53;10.03;;;11.80;1.00;;;;;;4861228;29;20429;-45
2023/11/01 07:31:17;;;;;;;10.50;9.90;;;12.00;99.90;;;;;;4848366;29;20283;-50
2023/11/01 07:33:44;;;;;;;11.30;10.80;;;12.10;1.00;;;;;;4849142;29;20468;-48
2023/11/01 07:36:11;;;;;;;11.30;10.60;;;12.30;99.90;;;;;;4848977;29;20973;-50
2023/11/01 07:38:37;;;;;;;10.13;9.53;;;12.40;1.00;;;;;;4850856;29;20420;-47
2023/11/01 07:41:02;;;;;;;11.30;10.53;;;12.40;99.90;;;;;;4849501;29;20413;-50
2023/11/01 07:43:28;;;;;;;10.40;9.90;;;12.50;99.90;;;;;;4853269;29;20267;-54
2023/11/01 07:45:54;;;;;;;10.60;9.90;;;12.70;1.00;;;;;;4851782;29;20191;-49
2023/11/01 07:48:20;;;;;;;11.57;10.80;;;12.80;55.70;;;;;;4851892;29;20196;-48
2023/11/01 07:50:45;;;;;;;11.40;10.63;;;12.80;99.90;;;;;;4851881;29;20587;-49
2023/11/01 07:53:11;;;;;;;11.63;11.13;;;12.90;99.90;;;;;;4853645;29;20420;-51
2023/11/01 07:55:37;;;;;;;10.60;10.20;;;12.90;99.90;;;;;;4852908;29;20193;-46
2023/11/01 07:58:03;;;;;;;10.27;9.70;;;13.00;4.90;;;;;;4856111;29;21107;-54
2023/11/01 08:00:28;;;;;;;10.60;10.20;;;13.10;1.00;;;;;;4853465;29;20196;-52
2023/11/01 08:02:54;;;;;;;11.70;11.00;;;13.10;99.90;;;;;;4852203;29;20543;-50
2023/11/01 08:05:20;;;;;;;11.30;10.60;;;13.20;99.90;;;;;;4853306;29;20649;-48
2023/11/01 08:07:46;;;;;;;10.87;10.37;;;13.20;58.50;;;;;;4851529;29;20298;-50
2023/11/01 08:10:12;;;;;;;10.10;9.60;;;13.20;1.00;;;;;;4853809;29;21012;-51
2023/11/01 08:12:38;;;;;;;10.20;9.70;;;13.20;99.90;;;;;;4852652;29;20657;-49
2023/11/01 08:15:04;;;;;;;10.60;10.10;;;13.30;99.90;;;;;;4837350;29;20232;-51
2023/11/01 08:17:31;;;;;;;11.10;10.43;;;13.40;99.90;;;;;;4857065;29;21452;-55
2023/11/01 08:19:56;;;;;;;10.70;10.20;;;13.40;99.90;;;;;;4850961;29;20835;-49
2023/11/01 08:22:22;;;;;;;10.83;10.23;;;13.50;99.90;;;;;;4852359;29;20445;-48
2023/11/01 08:24:48;;;;;;;11.27;10.73;;;13.50;99.90;;;;;;4850715;29;20199;-50
2023/11/01 08:27:13;;;;;;;11.50;10.90;;;13.50;6.90;;;;;;4851306;29;20648;-50
2023/11/01 08:29:42;;;;;;;10.93;10.50;;;13.60;1.00;;;;;;4848587;29;20220;-49
2023/11/01 08:32:11;;;;;;;11.50;10.90;;;13.70;1.00;;;;;;4859335;29;20190;-51
2023/11/01 08:34:37;;;;;;;10.93;10.43;;;13.90;1.00;;;;;;4860552;29;20524;-50
2023/11/01 08:37:04;;;;;;;11.60;10.90;;;14.00;1.00;;;;;;4853195;29;20846;-47
2023/11/01 08:39:30;;;;;;;11.27;10.67;;;14.20;1.00;;;;;;4854722;29;20500;-53
2023/11/01 08:41:56;;;;;;;12.00;11.40;;;14.30;1.00;;;;;;4858883;29;20975;-50
2023/11/01 08:44:21;;;;;;;11.10;10.60;;;14.30;99.90;;;;;;4848557;29;20813;-50
2023/11/01 08:46:47;;;;;;;10.90;10.40;;;14.30;99.90;;;;;;4855154;29;20647;-47
2023/11/01 08:49:13;;;;;;;11.43;10.73;;;14.30;99.90;;;;;;4853851;29;21363;-49
2023/11/01 08:51:39;;;;;;;10.23;9.63;;;14.30;99.90;;;;;;4848720;29;20288;-47
2023/11/01 08:54:09;;;;;;;12.00;11.30;;;14.40;99.90;;;;;;4859332;29;20496;-52
2023/11/01 08:56:38;;;;;;;12.30;11.50;;;14.40;99.90;;;;;;4857052;29;20475;-50
2023/11/01 08:59:04;;;;;;;12.63;12.03;;;14.40;99.90;;;;;;4867373;29;20902;-49
2023/11/01 09:01:30;;;;;;;12.33;11.63;;;14.40;99.90;;;;;;4854302;29;20441;-47
2023/11/01 09:03:56;;;;;;;12.10;11.50;;;14.30;99.90;;;;;;4859622;29;21736;-49
2023/11/01 09:06:21;;;;;;;13.10;12.40;;;14.50;99.90;;;;;;4859410;29;20284;-49
2023/11/01 09:08:47;;;;;;;12.50;11.80;;;14.40;99.90;;;;;;4864109;29;20211;-50
2023/11/01 09:11:13;;;;;;;12.87;12.07;;;14.50;99.90;;;;;;4861808;29;20282;-47
2023/11/01 09:13:39;;;;;;;12.97;12.33;;;14.70;99.90;;;;;;4865220;29;20605;-50
2023/11/01 09:16:05;;;;;;;11.70;11.10;;;14.70;99.90;;;;;;4859215;29;20195;-48
2023/11/01 09:18:31;;;;;;;12.50;11.70;;;14.70;99.90;;;;;;4864793;29;20425;-53
2023/11/01 09:20:56;;;;;;;13.77;12.90;;;14.90;99.90;;;;;;4850791;29;20940;-48
2023/11/01 09:23:23;;;;;;;12.47;11.80;;;15.10;99.90;;;;;;4864963;29;21011;-52
2023/11/01 09:25:49;;;;;;;12.70;11.97;;;15.30;99.90;;;;;;4860369;29;20192;-43
2023/11/01 09:28:14;;;;;;;12.13;11.33;;;15.40;73.20;;;;;;4864904;29;20507;-49
2023/11/01 09:30:40;;;;;;;12.60;11.90;;;15.50;65.60;;;;;;4863240;29;20467;-50
2023/11/01 09:33:06;;;;;;;13.27;12.50;;;15.70;15.30;;;;;;4863875;29;20199;-53
2023/11/01 09:35:31;;;;;;;13.60;12.90;;;15.80;1.00;;;;;;4858470;29;20180;-52
2023/11/01 09:37:57;;;;;;;12.10;11.40;;;16.10;1.00;;;;;;4861160;29;20196;-47
2023/11/01 09:40:22;;;;;;;12.97;12.20;;;16.50;1.00;;;;;;4867812;29;20196;-48
2023/11/01 09:42:48;;;;;;;12.37;11.73;;;16.90;1.00;;;;;;4837617;29;20202;-48
2023/11/01 09:45:14;;;;;;;12.27;11.67;;;16.80;1.00;;;;;;4866244;29;20229;-51
2023/11/01 09:47:41;;;;;;;12.93;12.23;;;17.00;1.00;;;;;;4860867;29;20202;-48
2023/11/01 09:50:12;;;;;;;13.60;12.90;;;17.10;1.00;;;;;;4864984;29;20212;-49
2023/11/01 09:52:38;;;;;;;12.83;12.23;;;17.20;1.00;;;;;;4857274;29;20412;-50
2023/11/01 09:55:05;;;;;;;13.07;12.37;;;17.10;1.00;;;;;;4852994;29;20416;-51
2023/11/01 09:57:33;;;;;;;13.23;12.53;;;17.10;1.00;;;;;;4848177;29;20432;-50
2023/11/01 10:00:01;;;;;;;12.50;11.90;;;17.00;1.00;;;;;;4849456;29;20440;-52
2023/11/01 10:02:26;;;;;;;12.77;12.17;;;17.10;1.00;;;;;;4847383;29;20977;-43
2023/11/01 10:04:53;;;;;;;11.77;11.07;;;17.10;1.00;;;;;;4851164;29;20433;-49
2023/11/01 10:07:19;;;;;;;12.00;11.40;;;17.10;1.00;;;;;;4860923;29;20424;-47
2023/11/01 10:09:44;;;;;;;11.97;11.33;;;16.90;1.00;;;;;;4863580;29;20473;-48
2023/11/01 10:12:13;;;;;;;13.23;12.53;;;17.00;1.00;;;;;;4855404;29;20232;-49
2023/11/01 10:14:39;;;;;;;12.30;11.60;;;17.10;1.00;;;;;;4859022;29;20991;-49
2023/11/01 10:17:04;;;;;;;11.57;11.07;;;17.00;1.00;;;;;;4859440;29;20432;-51
2023/11/01 10:19:30;;;;;;;13.13;12.33;;;17.10;1.00;;;;;;4856297;29;20216;-47
2023/11/01 10:21:57;;;;;;;12.73;12.10;;;17.10;1.00;;;;;;4848477;29;20208;-50
2023/11/01 10:24:25;;;;;;;12.13;11.53;;;17.10;1.00;;;;;;4856863;29;20751;-51
2023/11/01 10:26:51;;;;;;;12.50;11.80;;;17.20;1.00;;;;;;4859275;29;20425;-49
2023/11/01 10:29:17;;;;;;;13.07;12.13;;;17.20;1.00;;;;;;4860243;29;20465;-49
2023/11/01 10:31:50;;;;;;;13.83;12.93;;;17.20;1.00;;;;;;4857240;29;20433;-49
2023/11/01 10:34:16;;;;;;;12.60;12.00;;;17.30;1.00;;;;;;4855774;29;20188;-46
2023/11/01 10:36:52;;;;;;;12.80;12.10;;;17.50;1.00;;;;;;4853652;29;21222;-52
2023/11/01 10:39:19;;;;;;;13.67;12.90;;;17.50;1.00;;;;;;4833849;29;20188;-49
2023/11/01 10:41:49;;;;;;;14.60;13.90;;;17.30;1.00;;;;;;4852188;29;21000;-49
2023/11/01 10:44:16;;;;;;;13.00;12.30;;;17.20;1.00;;;;;;4851577;29;20430;-51
2023/11/01 10:46:42;;;;;;;14.40;13.50;;;17.20;1.00;;;;;;4850664;29;20439;-47
2023/11/01 10:49:11;;;;;;;14.40;13.60;;;17.20;1.00;;;;;;4851377;29;21187;-49
2023/11/01 10:51:38;;;;;;;13.10;12.40;;;17.20;1.00;;;;;;4862517;29;20430;-52
2023/11/01 10:54:04;;;;;;;14.43;13.63;;;17.30;1.00;;;;;;4855691;29;20436;-49
2023/11/01 10:56:30;;;;;;;13.60;12.90;;;17.20;1.00;;;;;;4849975;29;20526;-51
2023/11/01 10:59:23;;;;;;;13.63;12.93;;;17.10;1.00;;;;;;4850507;29;20500;-48
2023/11/01 11:02:16;;;;;;;14.07;13.27;;;17.40;1.00;;;;;;4852566;29;20198;-50
2023/11/01 11:04:59;;;;;;;14.60;13.80;;;17.30;1.00;;;;;;4850932;29;21160;-50
2023/11/01 11:07:48;;;;;;;14.20;13.40;;;17.10;1.00;;;;;;4850636;29;20441;-50
2023/11/01 11:10:26;;;;;;;14.50;13.70;;;17.20;1.00;;;;;;4852586;29;21057;-47
2023/11/01 11:13:16;;;;;;;14.67;13.77;;;17.40;1.00;;;;;;4850292;29;21226;-49
2023/11/01 11:15:48;;;;;;;14.17;13.30;;;17.60;1.00;;;;;;4852575;29;20870;-49
2023/11/01 11:18:16;;;;;;;16.10;15.00;;;17.80;1.00;;;;;;4852263;29;20898;-50
2023/11/01 11:20:41;;;;;;;15.10;14.13;;;17.90;1.00;;;;;;4855882;29;20436;-51
2023/11/01 11:23:09;;;;;;;14.67;13.67;;;18.20;1.00;;;;;;4856116;29;20770;-52
2023/11/01 11:25:38;;;;;;;13.00;12.30;;;18.70;1.00;;;;;;4854128;29;20264;-54
2023/11/01 11:28:05;;;;;;;13.93;13.23;;;18.80;1.00;;;;;;4858214;29;20444;-48
2023/11/01 11:31:03;;;;;;;12.33;11.63;;;19.20;99.90;;;;;;4854632;29;20467;-51
2023/11/01 11:33:33;;;;;;;13.97;13.20;;;18.80;99.90;;;;;;4854618;29;20421;-48
2023/11/01 11:36:18;;;;;;;13.40;12.60;;;19.10;99.90;;;;;;4853597;29;20492;-50
2023/11/01 11:38:51;;;;;;;14.57;13.77;;;19.20;99.90;;;;;;4853869;29;20421;-52
2023/11/01 11:41:17;;;;;;;15.23;14.33;;;18.90;99.90;;;;;;4855193;29;20480;-50
2023/11/01 11:44:11;;;;;;;14.60;13.70;;;19.20;99.90;;;;;;4854391;29;20431;-48
2023/11/01 11:46:44;;;;;;;14.57;13.70;;;19.30;99.90;;;;;;4854625;29;20181;-49
2023/11/01 11:52:04;;;;;;;15.87;14.97;;;19.30;99.90;;;;;;4861004;29;20920;-51
2023/11/01 11:54:31;;;;;;;15.37;14.57;;;19.20;99.90;;;;;;4852278;29;21004;-50
2023/11/01 11:57:08;;;;;;;13.40;12.70;;;19.10;99.90;;;;;;4855362;29;20417;-51
2023/11/01 11:59:35;;;;;;;12.87;12.27;;;18.80;99.90;;;;;;4852788;29;20496;-51
2023/11/01 12:02:10;;;;;;;13.20;12.50;;;18.80;99.90;;;;;;4855511;29;20474;-48
2023/11/01 12:04:36;;;;;;;13.37;12.67;;;18.60;99.90;;;;;;4851738;29;20436;-51
2023/11/01 12:07:02;;;;;;;12.40;11.80;;;18.60;99.90;;;;;;4859073;29;20420;-51
2023/11/01 12:09:28;;;;;;;12.73;12.03;;;18.60;99.90;;;;;;4854063;29;20509;-52
2023/11/01 12:11:59;;;;;;;13.00;12.30;;;18.40;99.90;;;;;;4853433;29;20479;-47
2023/11/01 12:14:28;;;;;;;13.10;12.50;;;18.50;99.90;;;;;;4852183;29;20416;-49
2023/11/01 12:16:58;;;;;;;11.97;11.40;;;18.50;99.90;;;;;;4850704;29;20483;-50
2023/11/01 12:19:25;;;;;;;12.27;11.63;;;18.70;99.90;;;;;;4850707;29;20843;-52
2023/11/01 12:21:58;;;;;;;11.57;11.07;;;18.80;99.90;;;;;;4854516;29;20509;-53
2023/11/01 12:24:40;;;;;;;11.00;10.50;;;18.90;99.90;;;;;;4851285;29;20433;-51
2023/11/01 12:27:27;;;;;;;14.07;13.17;;;19.00;99.90;;;;;;4850906;29;20425;-53
2023/11/01 12:29:55;;;;;;;12.80;12.20;;;19.50;99.90;;;;;;4851235;29;20472;-50
2023/11/01 12:32:23;;;;;;;13.80;13.10;;;20.10;99.90;;;;;;4853532;29;20413;-49
2023/11/01 12:34:49;;;;;;;13.57;12.87;;;20.40;99.90;;;;;;4852156;29;20430;-50
2023/11/01 12:37:27;;;;;;;13.70;12.90;;;20.20;99.90;;;;;;4851295;29;20421;-47